Time;durP1;ratioP1;P1;durP2;ratioP2;P2;SDS_P1;SDS_P2;PMS_P1;PMS_P2;Temp;Humidity;BMP_temperature;BMP_pressure;BME280_temperature;BME280_humidity;BME280_pressure;Samples;Min_cycle;Max_cycle;Signal;HPM_P1;HPM_P2
2021/05/07 00:01:19;;;;;;;36.97;32.90;;;4.60;99.90;;;;;;5082087;28;20541;-72
2021/05/07 00:03:46;;;;;;;38.20;34.40;;;4.60;99.90;;;;;;5082722;28;20473;-74
2021/05/07 00:06:12;;;;;;;38.20;34.70;;;4.60;99.90;;;;;;5081483;28;20466;-72
2021/05/07 00:08:40;;;;;;;39.80;35.80;;;4.80;99.90;;;;;;5089288;28;20456;-73
2021/05/07 00:11:09;;;;;;;39.23;35.43;;;4.70;99.90;;;;;;5084646;28;20459;-71
2021/05/07 00:13:36;;;;;;;39.60;35.50;;;4.60;99.90;;;;;;5086401;28;20459;-72
2021/05/07 00:16:03;;;;;;;37.00;33.40;;;4.60;99.90;;;;;;5079916;28;21067;-74
2021/05/07 00:18:29;;;;;;;35.27;31.70;;;4.50;99.90;;;;;;5084180;28;20458;-75
2021/05/07 00:20:56;;;;;;;37.47;33.70;;;4.50;99.90;;;;;;5084865;28;20462;-71
2021/05/07 00:23:23;;;;;;;36.20;32.90;;;4.50;99.90;;;;;;5086471;28;20470;-74
2021/05/07 00:25:51;;;;;;;35.10;31.80;;;4.50;99.90;;;;;;5086269;28;20519;-72
2021/05/07 00:28:20;;;;;;;36.67;32.80;;;4.40;99.90;;;;;;5086556;28;20458;-72
2021/05/07 00:30:47;;;;;;;37.70;33.80;;;4.40;99.90;;;;;;5085580;28;20454;-75
2021/05/07 00:33:14;;;;;;;36.00;31.77;;;4.30;99.90;;;;;;5077534;28;20469;-73
2021/05/07 00:35:40;;;;;;;36.70;32.87;;;4.40;99.90;;;;;;5088496;28;20866;-72
2021/05/07 00:38:07;;;;;;;34.97;31.53;;;4.40;99.90;;;;;;5083691;28;20493;-72
2021/05/07 00:40:34;;;;;;;35.33;31.63;;;4.40;99.90;;;;;;5082462;28;20466;-74
2021/05/07 00:43:01;;;;;;;35.93;32.23;;;4.40;99.90;;;;;;5082413;28;20493;-72
2021/05/07 00:45:28;;;;;;;34.57;31.17;;;4.50;99.90;;;;;;5083173;28;20461;-75
2021/05/07 00:47:58;;;;;;;34.63;31.40;;;4.50;99.90;;;;;;5084721;28;20455;-74
2021/05/07 00:50:25;;;;;;;34.20;30.80;;;4.40;99.90;;;;;;5085744;28;20463;-73
2021/05/07 00:52:51;;;;;;;35.73;32.20;;;4.50;99.90;;;;;;5078371;28;20474;-74
2021/05/07 00:55:18;;;;;;;33.53;30.10;;;4.60;99.90;;;;;;5078623;28;20543;-72
2021/05/07 00:57:45;;;;;;;37.10;33.10;;;4.60;99.90;;;;;;5081913;28;20539;-71
2021/05/07 01:00:12;;;;;;;35.73;31.90;;;4.60;99.90;;;;;;5083032;28;20472;-72
2021/05/07 01:02:39;;;;;;;37.00;33.27;;;4.80;99.90;;;;;;5083488;28;20857;-75
2021/05/07 01:05:08;;;;;;;36.67;33.07;;;4.90;99.90;;;;;;5078701;28;20462;-73
2021/05/07 01:07:35;;;;;;;38.07;34.07;;;4.80;99.90;;;;;;5074890;28;20462;-74
2021/05/07 01:10:05;;;;;;;38.80;34.80;;;5.00;99.90;;;;;;5079100;28;20453;-73
2021/05/07 01:12:31;;;;;;;41.87;37.37;;;5.10;99.90;;;;;;5079736;28;20466;-74
2021/05/07 01:15:04;;;;;;;44.90;36.93;;;5.10;99.90;;;;;;5082657;28;20849;-73
2021/05/07 01:17:31;;;;;;;42.77;37.73;;;5.20;99.90;;;;;;5074844;28;20533;-73
2021/05/07 01:20:22;;;;;;;44.00;39.40;;;5.30;99.90;;;;;;5082849;28;20806;-73
2021/05/07 01:22:51;;;;;;;45.77;40.87;;;5.30;99.90;;;;;;5079244;28;20462;-71
2021/05/07 01:25:19;;;;;;;47.83;40.60;;;5.40;99.90;;;;;;5084565;28;20458;-72
2021/05/07 01:27:47;;;;;;;44.60;39.73;;;5.40;99.90;;;;;;5079818;28;20454;-72
2021/05/07 01:30:16;;;;;;;45.73;39.70;;;5.40;99.90;;;;;;5080319;28;20520;-73
2021/05/07 01:32:43;;;;;;;50.07;42.77;;;5.30;99.90;;;;;;5081706;28;20899;-71
2021/05/07 01:35:14;;;;;;;50.67;42.13;;;5.20;99.90;;;;;;5080082;28;20453;-71
2021/05/07 01:37:42;;;;;;;48.70;41.87;;;5.10;99.90;;;;;;5079059;28;20987;-72
2021/05/07 01:40:19;;;;;;;48.93;42.63;;;5.00;99.90;;;;;;5078581;28;20455;-73
2021/05/07 01:42:47;;;;;;;44.37;39.73;;;4.90;99.90;;;;;;5086126;28;20484;-71
2021/05/07 01:45:16;;;;;;;53.93;42.90;;;4.80;99.90;;;;;;5078469;28;20458;-73
2021/05/07 01:47:43;;;;;;;53.83;41.70;;;4.70;99.90;;;;;;5078391;28;20451;-73
2021/05/07 01:50:13;;;;;;;46.63;41.50;;;4.70;99.90;;;;;;5080379;28;20455;-73
2021/05/07 01:52:39;;;;;;;48.40;41.00;;;4.60;99.90;;;;;;5081665;28;20512;-73
2021/05/07 01:55:08;;;;;;;49.03;41.27;;;4.40;99.90;;;;;;5083467;28;20473;-73
2021/05/07 01:57:35;;;;;;;50.23;41.43;;;4.40;99.90;;;;;;5074574;28;20494;-71
2021/05/07 02:00:05;;;;;;;49.60;40.33;;;4.30;99.90;;;;;;5079446;28;20497;-71
2021/05/07 02:02:31;;;;;;;54.70;42.90;;;4.30;99.90;;;;;;5073810;28;20466;-71
2021/05/07 02:04:57;;;;;;;48.20;42.07;;;4.30;99.90;;;;;;5071994;28;20469;-72
2021/05/07 02:07:25;;;;;;;52.13;42.70;;;4.40;99.90;;;;;;5082282;28;20461;-73
2021/05/07 02:09:51;;;;;;;47.87;41.60;;;4.40;99.90;;;;;;5080620;28;20442;-73
2021/05/07 02:12:17;;;;;;;59.97;42.87;;;4.40;99.90;;;;;;5078250;28;20702;-72
2021/05/07 02:14:44;;;;;;;48.00;40.20;;;4.30;99.90;;;;;;5079365;28;20462;-72
2021/05/07 02:17:11;;;;;;;55.63;42.63;;;4.30;99.90;;;;;;5078869;28;20507;-72
2021/05/07 02:19:38;;;;;;;47.07;41.17;;;4.20;99.90;;;;;;5078963;28;20564;-73
2021/05/07 02:22:04;;;;;;;46.77;40.27;;;4.20;99.90;;;;;;5082384;28;20463;-73
2021/05/07 02:24:32;;;;;;;53.57;43.73;;;4.10;99.90;;;;;;5081409;28;20804;-74
2021/05/07 02:26:59;;;;;;;51.87;42.70;;;4.10;99.90;;;;;;5080904;28;20461;-72
2021/05/07 02:29:25;;;;;;;55.33;42.93;;;4.10;99.90;;;;;;5081855;28;20465;-73
2021/05/07 02:31:51;;;;;;;51.33;43.73;;;4.10;99.90;;;;;;5079497;28;20477;-73
2021/05/07 02:34:18;;;;;;;54.13;42.27;;;4.10;99.90;;;;;;5080942;28;20470;-72
2021/05/07 02:36:44;;;;;;;49.77;42.83;;;4.10;99.90;;;;;;5077674;28;20481;-72
2021/05/07 02:39:10;;;;;;;61.50;45.83;;;4.00;99.90;;;;;;5077715;28;20465;-72
2021/05/07 02:41:38;;;;;;;55.07;43.70;;;4.00;99.90;;;;;;5076916;28;20605;-71
2021/05/07 02:44:05;;;;;;;53.57;43.87;;;4.00;99.90;;;;;;5074737;28;20813;-74
2021/05/07 02:46:33;;;;;;;47.33;41.90;;;3.90;99.90;;;;;;5081670;28;20465;-72
2021/05/07 02:49:00;;;;;;;52.27;41.53;;;3.90;99.90;;;;;;5074896;28;20519;-74
2021/05/07 02:51:27;;;;;;;50.40;41.87;;;3.80;99.90;;;;;;5082176;28;20835;-73
2021/05/07 02:53:54;;;;;;;47.23;41.30;;;3.80;99.90;;;;;;5079107;28;20484;-72
2021/05/07 02:56:20;;;;;;;49.47;41.37;;;3.90;99.90;;;;;;5073852;28;20924;-74
2021/05/07 02:58:47;;;;;;;53.73;41.47;;;3.90;99.90;;;;;;5074865;28;20465;-71
2021/05/07 03:01:13;;;;;;;49.67;42.57;;;4.00;99.90;;;;;;5082143;28;20458;-72
2021/05/07 03:03:40;;;;;;;50.27;41.43;;;3.90;99.90;;;;;;5082584;28;20443;-71
2021/05/07 03:06:06;;;;;;;56.23;42.53;;;4.00;99.90;;;;;;5083242;28;20490;-72
2021/05/07 03:08:33;;;;;;;56.20;42.33;;;4.20;99.90;;;;;;5076416;28;20455;-73
2021/05/07 03:10:59;;;;;;;50.87;42.30;;;4.20;99.90;;;;;;5081206;28;20462;-74
2021/05/07 03:13:26;;;;;;;52.43;43.50;;;4.30;99.90;;;;;;5073128;28;20551;-73
2021/05/07 03:15:53;;;;;;;59.57;43.70;;;4.20;99.90;;;;;;5083037;28;20472;-71
2021/05/07 03:18:20;;;;;;;54.97;44.10;;;4.20;99.90;;;;;;5083484;28;20482;-71
2021/05/07 03:20:48;;;;;;;59.60;42.90;;;4.10;99.90;;;;;;5083053;28;20465;-74
2021/05/07 03:23:15;;;;;;;57.60;44.27;;;4.10;99.90;;;;;;5081398;28;20937;-73
2021/05/07 03:25:41;;;;;;;58.77;46.40;;;4.00;99.90;;;;;;5081155;28;20854;-74
2021/05/07 03:28:08;;;;;;;57.17;45.50;;;3.90;99.90;;;;;;5078934;28;20458;-74
2021/05/07 03:30:35;;;;;;;55.57;44.83;;;3.90;99.90;;;;;;5080423;28;20564;-73
2021/05/07 03:33:04;;;;;;;60.07;44.80;;;3.90;99.90;;;;;;5084811;28;20987;-71
2021/05/07 03:35:31;;;;;;;54.63;44.97;;;3.80;99.90;;;;;;5079138;28;20864;-72
2021/05/07 03:37:57;;;;;;;53.17;44.23;;;3.80;99.90;;;;;;5082658;28;20486;-73
2021/05/07 03:40:24;;;;;;;53.30;43.97;;;3.60;99.90;;;;;;5079535;28;20524;-72
2021/05/07 03:42:50;;;;;;;57.43;46.17;;;3.60;99.90;;;;;;5076700;28;20512;-74
2021/05/07 03:45:17;;;;;;;59.43;43.90;;;3.50;99.90;;;;;;5082538;28;21030;-72
2021/05/07 03:47:44;;;;;;;57.10;45.87;;;3.40;99.90;;;;;;5076914;28;20510;-74
2021/05/07 03:50:12;;;;;;;63.40;46.93;;;3.50;99.90;;;;;;5084170;28;20468;-73
2021/05/07 03:52:41;;;;;;;58.57;44.47;;;3.50;99.90;;;;;;5084583;28;20480;-73
2021/05/07 03:55:09;;;;;;;61.30;46.87;;;3.50;99.90;;;;;;5080337;28;20490;-71
2021/05/07 03:57:35;;;;;;;60.70;47.57;;;3.50;99.90;;;;;;5082733;28;20497;-70
2021/05/07 04:00:03;;;;;;;59.00;46.23;;;3.60;99.90;;;;;;5076442;28;20979;-72
2021/05/07 04:02:29;;;;;;;54.20;46.30;;;3.70;99.90;;;;;;5081616;28;20457;-73
2021/05/07 04:04:56;;;;;;;55.67;45.63;;;3.70;99.90;;;;;;5079937;28;20941;-71
2021/05/07 04:07:24;;;;;;;62.57;46.60;;;3.60;99.90;;;;;;5081428;28;20523;-72
2021/05/07 04:09:55;;;;;;;64.90;46.17;;;3.70;99.90;;;;;;5081015;28;20502;-72
2021/05/07 04:12:30;;;;;;;72.07;46.73;;;3.80;99.90;;;;;;5077717;28;21001;-72
2021/05/07 04:14:59;;;;;;;62.33;49.80;;;3.90;99.90;;;;;;5087880;28;20510;-72
2021/05/07 04:17:25;;;;;;;57.80;47.10;;;3.90;99.90;;;;;;5077701;28;20552;-72
2021/05/07 04:19:51;;;;;;;64.00;48.23;;;3.90;99.90;;;;;;5080922;28;20470;-71
2021/05/07 04:22:20;;;;;;;60.50;46.43;;;4.00;99.90;;;;;;5080863;28;20458;-72
2021/05/07 04:24:48;;;;;;;60.57;46.80;;;4.00;99.90;;;;;;5082039;28;21108;-73
2021/05/07 04:27:15;;;;;;;64.57;48.37;;;4.10;99.90;;;;;;5080944;28;20488;-72
2021/05/07 04:29:41;;;;;;;60.77;47.77;;;4.20;99.90;;;;;;5086422;28;20470;-71
2021/05/07 04:32:08;;;;;;;68.50;47.87;;;4.20;99.90;;;;;;5080612;28;20470;-73
2021/05/07 04:34:34;;;;;;;67.50;46.90;;;4.20;99.90;;;;;;5082904;28;20464;-73
2021/05/07 04:37:00;;;;;;;61.80;46.97;;;4.20;99.90;;;;;;5080951;28;20486;-73
2021/05/07 04:39:27;;;;;;;61.13;47.00;;;4.20;99.90;;;;;;5081134;28;20833;-74
2021/05/07 04:41:55;;;;;;;63.20;46.17;;;4.20;99.90;;;;;;5083618;28;20470;-71
2021/05/07 04:44:21;;;;;;;58.03;46.23;;;4.10;99.90;;;;;;5076316;28;20722;-71
2021/05/07 04:46:48;;;;;;;58.00;45.27;;;4.20;99.90;;;;;;5081408;28;20472;-73
2021/05/07 04:49:15;;;;;;;57.60;44.80;;;4.20;99.90;;;;;;5079264;28;20469;-72
2021/05/07 04:51:41;;;;;;;61.00;46.80;;;4.20;99.90;;;;;;5080402;28;20702;-73
2021/05/07 04:54:07;;;;;;;71.27;47.50;;;4.30;99.90;;;;;;5074308;28;20500;-73
2021/05/07 04:56:34;;;;;;;63.57;47.47;;;4.40;99.90;;;;;;5080430;28;20521;-73
2021/05/07 04:59:01;;;;;;;60.80;47.17;;;4.60;99.90;;;;;;5081451;28;20458;-72
2021/05/07 05:01:28;;;;;;;57.20;41.83;;;4.70;99.90;;;;;;5079057;28;20459;-74
2021/05/07 05:03:54;;;;;;;59.60;44.60;;;4.70;99.90;;;;;;5076186;28;20463;-72
2021/05/07 05:06:21;;;;;;;60.03;42.30;;;4.70;99.90;;;;;;5085135;28;20462;-74
2021/05/07 05:08:47;;;;;;;60.57;45.87;;;4.60;99.90;;;;;;5085420;28;20510;-73
2021/05/07 05:11:13;;;;;;;55.17;42.97;;;4.70;99.90;;;;;;5087861;28;20540;-72
2021/05/07 05:13:41;;;;;;;58.83;44.70;;;4.90;99.90;;;;;;5084390;28;20457;-74
2021/05/07 05:16:08;;;;;;;69.27;49.40;;;4.90;99.90;;;;;;5083705;28;20455;-71
2021/05/07 05:18:36;;;;;;;56.13;44.47;;;4.90;99.90;;;;;;5083208;28;20912;-72
2021/05/07 05:21:04;;;;;;;63.63;48.23;;;5.00;99.90;;;;;;5082557;28;20469;-73
2021/05/07 05:23:32;;;;;;;94.67;49.10;;;4.90;99.90;;;;;;5085293;28;20459;-72
2021/05/07 05:25:58;;;;;;;22.33;21.03;;;4.90;99.90;;;;;;5078496;28;20735;-76
2021/05/07 05:28:26;;;;;;;24.20;22.80;;;4.40;99.90;;;;;;5084096;28;20458;-76
2021/05/07 05:30:52;;;;;;;20.87;19.70;;;4.00;99.90;;;;;;5080362;28;20463;-79
2021/05/07 05:33:20;;;;;;;18.00;17.00;;;3.90;99.90;;;;;;5082634;28;20461;-80
2021/05/07 05:35:47;;;;;;;18.33;17.37;;;3.90;99.90;;;;;;5083038;28;20461;-75
2021/05/07 05:38:14;;;;;;;17.37;16.47;;;4.00;99.90;;;;;;5085502;28;20485;-77
2021/05/07 05:40:41;;;;;;;17.47;16.57;;;4.00;99.90;;;;;;5085461;28;20805;-75
2021/05/07 05:43:07;;;;;;;16.70;15.83;;;4.00;99.90;;;;;;5084149;28;20474;-76
2021/05/07 05:45:35;;;;;;;16.97;16.07;;;4.10;99.90;;;;;;5081204;28;20453;-77
2021/05/07 05:48:03;;;;;;;17.13;16.23;;;4.20;99.90;;;;;;5083226;28;20475;-77
2021/05/07 05:50:31;;;;;;;17.30;16.40;;;4.30;99.90;;;;;;5085036;28;20462;-74
2021/05/07 05:52:58;;;;;;;16.60;15.70;;;4.40;99.90;;;;;;5082355;28;20473;-76
2021/05/07 05:55:25;;;;;;;16.87;15.97;;;4.40;99.90;;;;;;5083668;28;20474;-76
2021/05/07 05:57:52;;;;;;;16.87;15.97;;;4.70;99.90;;;;;;5077662;28;20881;-75
2021/05/07 06:00:20;;;;;;;16.70;15.80;;;4.80;99.90;;;;;;5074438;28;20475;-76
2021/05/07 06:02:48;;;;;;;16.53;15.73;;;4.90;99.90;;;;;;5073518;28;20844;-75
2021/05/07 06:05:15;;;;;;;16.80;15.90;;;5.10;99.90;;;;;;5082209;28;20458;-76
2021/05/07 06:07:43;;;;;;;16.60;15.80;;;5.30;99.90;;;;;;5076420;28;20459;-74
2021/05/07 06:10:11;;;;;;;16.53;15.73;;;5.30;99.90;;;;;;5085298;28;20503;-73
2021/05/07 06:12:38;;;;;;;16.33;15.53;;;5.60;99.90;;;;;;5084252;28;20454;-75
2021/05/07 06:15:06;;;;;;;16.43;15.63;;;5.80;99.90;;;;;;5079210;28;20831;-75
2021/05/07 06:17:33;;;;;;;15.97;15.17;;;6.00;99.90;;;;;;5078745;28;20539;-75
2021/05/07 06:20:02;;;;;;;16.23;15.43;;;5.90;99.90;;;;;;5083360;28;20459;-75
2021/05/07 06:22:28;;;;;;;15.37;14.67;;;6.00;99.90;;;;;;5080687;28;20462;-74
2021/05/07 06:24:56;;;;;;;16.03;15.23;;;5.90;99.90;;;;;;5078495;28;20466;-75
2021/05/07 06:27:23;;;;;;;16.33;15.53;;;5.90;99.90;;;;;;5077129;28;21049;-76
2021/05/07 06:29:49;;;;;;;15.47;14.77;;;5.60;99.90;;;;;;5082214;28;20457;-76
2021/05/07 06:32:16;;;;;;;15.70;15.00;;;5.70;99.90;;;;;;5082264;28;20967;-76
2021/05/07 06:34:42;;;;;;;15.10;14.40;;;5.80;99.90;;;;;;5082805;28;20507;-72
2021/05/07 06:37:09;;;;;;;14.83;14.13;;;5.90;99.90;;;;;;5081033;28;20531;-72
2021/05/07 06:39:35;;;;;;;14.07;13.47;;;6.10;99.90;;;;;;5084263;28;20458;-73
2021/05/07 06:42:04;;;;;;;13.80;13.20;;;6.10;99.90;;;;;;5083825;28;20469;-73
2021/05/07 06:44:31;;;;;;;13.07;12.50;;;6.10;99.90;;;;;;5081657;28;20802;-72
2021/05/07 06:47:01;;;;;;;13.20;12.60;;;6.20;99.90;;;;;;5079180;28;21016;-72
2021/05/07 06:49:27;;;;;;;13.17;12.57;;;6.30;99.90;;;;;;5082165;28;20510;-72
2021/05/07 06:51:54;;;;;;;13.53;12.93;;;6.30;99.90;;;;;;5083992;28;20527;-74
2021/05/07 06:54:26;;;;;;;14.00;13.40;;;6.50;99.90;;;;;;5082359;28;20487;-73
2021/05/07 06:56:52;;;;;;;14.20;13.60;;;6.40;99.90;;;;;;5085762;28;20498;-74
2021/05/07 06:59:19;;;;;;;13.87;13.27;;;6.30;99.90;;;;;;5082078;28;20474;-75
2021/05/07 07:01:46;;;;;;;16.20;15.40;;;6.30;99.90;;;;;;5086844;28;20960;-73
2021/05/07 07:04:12;;;;;;;17.20;16.30;;;6.10;99.90;;;;;;5083073;28;20481;-76
2021/05/07 07:06:39;;;;;;;18.13;17.13;;;6.00;99.90;;;;;;5066212;28;20466;-78
2021/05/07 07:09:07;;;;;;;18.30;17.30;;;5.90;99.90;;;;;;5076152;28;20462;-76
2021/05/07 07:11:33;;;;;;;19.80;18.70;;;5.30;99.90;;;;;;5078238;28;21138;-76
2021/05/07 07:13:59;;;;;;;21.10;19.90;;;4.10;99.90;;;;;;5080360;28;20492;-75
2021/05/07 07:16:28;;;;;;;19.90;18.80;;;3.40;99.90;;;;;;5078669;28;20480;-77
2021/05/07 07:18:54;;;;;;;18.80;17.80;;;3.00;99.90;;;;;;5083307;28;20489;-74
2021/05/07 07:21:21;;;;;;;18.80;17.80;;;2.90;99.90;;;;;;5077729;28;20461;-74
2021/05/07 07:23:47;;;;;;;17.20;16.30;;;2.90;99.90;;;;;;5076135;28;20470;-80
2021/05/07 07:26:13;;;;;;;17.30;16.40;;;2.80;99.90;;;;;;5079403;28;20462;-75
2021/05/07 07:28:52;;;;;;;17.20;16.30;;;2.80;99.90;;;;;;5080119;28;22348;-75
2021/05/07 07:31:18;;;;;;;16.00;15.20;;;2.80;99.90;;;;;;5086046;28;20957;-74
2021/05/07 07:33:45;;;;;;;16.30;15.50;;;2.90;99.90;;;;;;5079989;28;20472;-77
2021/05/07 07:36:12;;;;;;;16.30;15.50;;;3.00;99.90;;;;;;5078745;28;21359;-75
2021/05/07 07:38:39;;;;;;;15.97;15.17;;;3.00;99.90;;;;;;5073264;28;20497;-74
2021/05/07 07:41:05;;;;;;;16.00;15.20;;;3.00;99.90;;;;;;5079003;28;20457;-74
2021/05/07 07:43:32;;;;;;;15.00;14.30;;;3.00;99.90;;;;;;5079567;28;20880;-76
2021/05/07 07:45:59;;;;;;;15.47;14.67;;;3.10;99.90;;;;;;5081651;28;20707;-74
2021/05/07 07:48:26;;;;;;;15.37;14.67;;;3.10;99.90;;;;;;5077434;28;20454;-77
2021/05/07 07:50:53;;;;;;;14.67;13.97;;;3.20;99.90;;;;;;5084320;28;20618;-74
2021/05/07 07:53:20;;;;;;;14.67;13.97;;;3.50;99.90;;;;;;5073277;28;22391;-76
2021/05/07 07:55:46;;;;;;;15.00;14.30;;;3.80;99.90;;;;;;5081282;28;20514;-77
2021/05/07 07:58:13;;;;;;;14.67;13.97;;;4.00;99.90;;;;;;5079590;28;21015;-76
2021/05/07 08:00:39;;;;;;;14.83;14.13;;;4.30;99.90;;;;;;5081777;28;20557;-74
2021/05/07 08:03:06;;;;;;;14.00;13.40;;;4.60;99.90;;;;;;5081559;28;20466;-76
2021/05/07 08:05:32;;;;;;;14.37;13.73;;;4.80;99.90;;;;;;5075486;28;20463;-75
2021/05/07 08:08:00;;;;;;;14.07;13.47;;;5.10;99.90;;;;;;5086962;28;21005;-73
2021/05/07 08:10:26;;;;;;;13.87;13.27;;;5.40;99.90;;;;;;5082293;28;20899;-74
2021/05/07 08:12:52;;;;;;;14.10;13.50;;;5.50;99.90;;;;;;5078790;28;20462;-75
2021/05/07 08:15:20;;;;;;;14.00;13.40;;;5.90;99.90;;;;;;5087591;28;20462;-76
2021/05/07 08:17:47;;;;;;;13.93;13.33;;;6.10;99.90;;;;;;5078618;28;20514;-77
2021/05/07 08:20:16;;;;;;;14.57;13.87;;;5.90;99.90;;;;;;5075123;28;20511;-73
2021/05/07 08:22:42;;;;;;;14.73;14.03;;;5.30;99.90;;;;;;5076917;28;20936;-75
2021/05/07 08:25:12;;;;;;;14.90;14.20;;;5.40;99.90;;;;;;5076885;28;20458;-75
2021/05/07 08:27:39;;;;;;;14.93;14.23;;;5.40;99.90;;;;;;5072098;28;20467;-73
2021/05/07 08:30:07;;;;;;;14.90;14.20;;;5.80;99.90;;;;;;5080727;28;20835;-76
2021/05/07 08:32:34;;;;;;;14.50;13.80;;;6.70;99.90;;;;;;5081947;28;20470;-77
2021/05/07 08:35:00;;;;;;;14.90;14.20;;;7.20;99.90;;;;;;5081586;28;20879;-74
2021/05/07 08:37:26;;;;;;;15.40;14.70;;;7.00;99.90;;;;;;5074762;28;20605;-77
2021/05/07 08:39:54;;;;;;;15.37;14.67;;;7.20;99.90;;;;;;5077009;28;20464;-73
2021/05/07 08:42:21;;;;;;;15.50;14.80;;;7.50;99.90;;;;;;5080649;28;20470;-72
2021/05/07 08:44:48;;;;;;;16.30;15.50;;;7.60;99.90;;;;;;5081244;28;20489;-77
2021/05/07 08:47:17;;;;;;;16.80;16.00;;;7.40;99.90;;;;;;5080303;28;20483;-76
2021/05/07 08:49:46;;;;;;;16.30;15.50;;;7.50;99.90;;;;;;5078228;28;20470;-74
2021/05/07 08:52:13;;;;;;;16.17;15.37;;;7.00;99.90;;;;;;5074974;28;20469;-73
2021/05/07 08:54:39;;;;;;;15.57;14.87;;;7.20;99.90;;;;;;5074855;28;20530;-76
2021/05/07 08:57:05;;;;;;;15.77;15.07;;;7.30;99.90;;;;;;5076254;28;20466;-74
2021/05/07 08:59:33;;;;;;;16.13;15.40;;;7.20;99.90;;;;;;5082714;28;20886;-76
2021/05/07 09:02:00;;;;;;;16.70;15.90;;;7.60;99.90;;;;;;5082499;28;20460;-74
2021/05/07 09:04:27;;;;;;;16.80;16.00;;;7.60;99.90;;;;;;5077914;28;20507;-74
2021/05/07 09:06:54;;;;;;;16.27;15.47;;;7.20;99.90;;;;;;5076432;28;20461;-71
2021/05/07 09:09:24;;;;;;;16.17;15.37;;;8.00;99.90;;;;;;5078673;28;20514;-74
2021/05/07 09:11:51;;;;;;;16.30;15.50;;;8.20;99.90;;;;;;5076550;28;20460;-76
2021/05/07 09:14:18;;;;;;;20.17;18.67;;;7.70;99.90;;;;;;5074157;28;20462;-73
2021/05/07 09:16:56;;;;;;;17.20;16.30;;;8.00;99.90;;;;;;5081203;28;20458;-74
2021/05/07 09:19:24;;;;;;;17.80;16.80;;;7.90;99.90;;;;;;5076360;28;20832;-73
2021/05/07 09:21:51;;;;;;;17.63;16.63;;;7.80;99.90;;;;;;5069927;28;20469;-74
2021/05/07 09:24:18;;;;;;;17.03;16.10;;;8.00;99.90;;;;;;5078943;28;20502;-75
2021/05/07 09:26:49;;;;;;;18.50;17.50;;;9.10;99.90;;;;;;5074876;28;20461;-72
2021/05/07 09:29:22;;;;;;;16.87;15.97;;;10.30;99.90;;;;;;5077617;28;20457;-74
2021/05/07 09:31:50;;;;;;;17.93;16.83;;;10.40;99.90;;;;;;5072194;28;20810;-73
2021/05/07 09:34:20;;;;;;;16.57;15.77;;;9.40;99.90;;;;;;5071052;28;20465;-73
2021/05/07 09:36:47;;;;;;;17.27;16.27;;;9.70;99.90;;;;;;5077974;28;20553;-72
2021/05/07 09:39:16;;;;;;;18.43;17.43;;;10.10;99.90;;;;;;5076416;28;20598;-73
2021/05/07 09:41:43;;;;;;;17.53;16.63;;;10.30;99.90;;;;;;5076575;28;20512;-74
2021/05/07 09:44:17;;;;;;;17.10;16.30;;;10.60;99.90;;;;;;5079112;28;21019;-74
2021/05/07 09:46:44;;;;;;;18.83;17.40;;;9.90;99.90;;;;;;5078648;28;21330;-76
2021/05/07 09:49:23;;;;;;;17.50;16.50;;;9.70;99.90;;;;;;5077022;28;20535;-74
2021/05/07 09:51:50;;;;;;;17.30;16.40;;;9.30;99.90;;;;;;5078542;28;20462;-73
2021/05/07 09:54:16;;;;;;;18.77;17.67;;;10.30;99.90;;;;;;5080125;28;20486;-73
2021/05/07 09:56:43;;;;;;;18.67;17.63;;;11.60;99.90;;;;;;5078180;28;20467;-73
2021/05/07 09:59:11;;;;;;;18.40;17.30;;;11.70;99.90;;;;;;5080411;28;20491;-72
2021/05/07 10:01:37;;;;;;;17.80;16.67;;;11.30;99.90;;;;;;5081377;28;20454;-75
2021/05/07 10:04:03;;;;;;;17.43;16.43;;;11.80;99.90;;;;;;5070785;28;20458;-74
2021/05/07 10:06:32;;;;;;;19.13;17.80;;;12.20;99.90;;;;;;5077310;28;20458;-75
2021/05/07 10:08:59;;;;;;;18.87;17.80;;;12.30;99.90;;;;;;5071389;28;20608;-75
2021/05/07 10:11:33;;;;;;;17.73;16.63;;;11.60;99.90;;;;;;5078306;28;20454;-75
2021/05/07 10:14:06;;;;;;;18.73;17.70;;;11.00;99.90;;;;;;5078377;28;20992;-74
2021/05/07 10:16:32;;;;;;;17.80;16.70;;;11.20;99.90;;;;;;5077184;28;20489;-74
2021/05/07 10:19:03;;;;;;;18.07;17.17;;;11.50;99.90;;;;;;5079449;28;20485;-74
2021/05/07 10:21:36;;;;;;;17.57;16.67;;;12.30;99.90;;;;;;5066814;28;20454;-74
2021/05/07 10:24:04;;;;;;;19.60;18.40;;;12.60;99.90;;;;;;5075682;28;20506;-74
2021/05/07 10:26:36;;;;;;;18.93;17.83;;;11.80;99.90;;;;;;5079687;28;20458;-74
2021/05/07 10:29:13;;;;;;;18.27;17.27;;;11.10;99.90;;;;;;5079699;28;20458;-75
2021/05/07 10:31:45;;;;;;;18.53;17.40;;;11.00;99.90;;;;;;5079453;28;20455;-74
2021/05/07 10:34:11;;;;;;;18.10;17.10;;;11.80;99.90;;;;;;5082080;28;20474;-75
2021/05/07 10:36:40;;;;;;;17.87;16.90;;;12.60;99.90;;;;;;5077133;28;20462;-74
2021/05/07 10:39:16;;;;;;;19.17;18.17;;;12.00;99.90;;;;;;5081922;28;20490;-75
2021/05/07 10:41:43;;;;;;;19.33;18.20;;;11.60;99.90;;;;;;5084410;28;20515;-74
2021/05/07 10:44:10;;;;;;;19.67;18.47;;;10.90;99.90;;;;;;5082266;28;20533;-74
2021/05/07 10:46:37;;;;;;;20.90;19.40;;;10.30;99.90;;;;;;5080249;28;20458;-75
2021/05/07 10:49:04;;;;;;;18.77;17.57;;;10.60;99.90;;;;;;5082679;28;20465;-75
2021/05/07 10:51:30;;;;;;;20.40;19.27;;;11.60;99.90;;;;;;5082908;28;20461;-73
2021/05/07 10:54:07;;;;;;;19.53;18.20;;;12.50;99.90;;;;;;5084353;28;21140;-75
2021/05/07 10:56:36;;;;;;;18.73;17.30;;;13.00;99.90;;;;;;5085941;28;20453;-73
2021/05/07 10:59:16;;;;;;;19.17;18.07;;;13.50;99.90;;;;;;5080260;28;20936;-73
2021/05/07 11:01:43;;;;;;;18.80;17.70;;;12.80;99.90;;;;;;5081774;28;20549;-75
2021/05/07 11:04:11;;;;;;;18.90;17.90;;;12.00;99.90;;;;;;5080330;28;20578;-74
2021/05/07 11:06:41;;;;;;;20.07;18.97;;;11.90;99.90;;;;;;5082409;28;20960;-75
2021/05/07 11:09:20;;;;;;;18.87;17.87;;;12.20;99.90;;;;;;5081074;28;20463;-74
2021/05/07 11:11:47;;;;;;;18.53;17.53;;;12.60;99.90;;;;;;5080335;28;21062;-75
2021/05/07 11:14:15;;;;;;;19.00;17.93;;;12.70;99.90;;;;;;5084305;28;20462;-75
2021/05/07 11:16:43;;;;;;;19.87;18.67;;;12.30;99.90;;;;;;5084123;28;20958;-75
2021/05/07 11:19:21;;;;;;;19.50;18.40;;;12.20;99.90;;;;;;5080445;28;20836;-75
2021/05/07 11:21:56;;;;;;;20.87;19.30;;;11.90;99.90;;;;;;5079757;28;20457;-76
2021/05/07 11:24:28;;;;;;;19.73;18.63;;;11.50;99.90;;;;;;5082173;28;20470;-75
2021/05/07 11:26:54;;;;;;;19.77;18.57;;;11.30;99.90;;;;;;5081662;28;20469;-74
2021/05/07 11:29:32;;;;;;;20.33;19.00;;;11.10;99.90;;;;;;5083850;28;21073;-75
2021/05/07 11:32:10;;;;;;;20.17;18.97;;;11.40;99.90;;;;;;5078427;28;20461;-76
2021/05/07 11:34:36;;;;;;;19.33;18.07;;;12.20;99.90;;;;;;5080311;28;20461;-75
2021/05/07 11:37:03;;;;;;;18.13;17.10;;;13.20;99.90;;;;;;5080909;28;20458;-75
2021/05/07 11:39:30;;;;;;;19.83;18.63;;;13.40;99.00;;;;;;5073872;28;20485;-75
2021/05/07 11:41:57;;;;;;;19.63;18.63;;;13.40;99.90;;;;;;5081358;28;20462;-75
2021/05/07 11:44:23;;;;;;;20.33;19.23;;;13.70;99.90;;;;;;5083532;28;20888;-75
2021/05/07 11:47:05;;;;;;;19.57;18.50;;;14.10;99.90;;;;;;5081600;28;20466;-76
2021/05/07 11:49:32;;;;;;;20.27;19.07;;;14.10;99.90;;;;;;5077223;28;20461;-76
2021/05/07 11:51:58;;;;;;;19.00;17.80;;;14.60;99.90;;;;;;5077518;28;20459;-74
2021/05/07 11:54:24;;;;;;;20.60;19.50;;;14.50;99.90;;;;;;5083221;28;20596;-74
2021/05/07 11:56:56;;;;;;;19.53;18.43;;;14.50;99.90;;;;;;5081504;28;20512;-76
2021/05/07 11:59:23;;;;;;;20.30;18.80;;;14.60;99.90;;;;;;5084184;28;20485;-76
2021/05/07 12:01:50;;;;;;;20.63;19.53;;;15.10;99.40;;;;;;5086901;28;20541;-76
2021/05/07 12:04:17;;;;;;;20.60;19.30;;;14.90;97.60;;;;;;5083370;28;20542;-77
2021/05/07 12:06:44;;;;;;;21.03;19.73;;;15.60;97.20;;;;;;5077582;28;20471;-74
2021/05/07 12:09:11;;;;;;;19.10;18.00;;;16.00;95.90;;;;;;5078989;28;20481;-75
2021/05/07 12:11:39;;;;;;;18.97;17.97;;;16.00;94.20;;;;;;5082204;28;20468;-75
2021/05/07 12:14:11;;;;;;;19.93;18.73;;;15.10;93.90;;;;;;5079582;28;21032;-75
2021/05/07 12:16:38;;;;;;;19.10;18.10;;;14.50;97.10;;;;;;5082302;28;20455;-75
2021/05/07 12:19:05;;;;;;;19.50;18.20;;;14.10;96.70;;;;;;5076717;28;20844;-75
2021/05/07 12:21:42;;;;;;;22.60;20.93;;;13.80;97.70;;;;;;5080081;28;20466;-76
2021/05/07 12:24:12;;;;;;;21.03;19.83;;;13.60;99.40;;;;;;5076678;28;20976;-75
2021/05/07 12:26:48;;;;;;;20.40;19.30;;;14.30;98.00;;;;;;5081400;28;20461;-73
2021/05/07 12:29:16;;;;;;;21.40;20.00;;;14.80;97.60;;;;;;5078624;28;20461;-75
2021/05/07 12:31:42;;;;;;;21.87;20.53;;;15.40;95.90;;;;;;5081310;28;20473;-75
2021/05/07 12:34:18;;;;;;;22.33;21.03;;;15.40;95.60;;;;;;5080798;28;20905;-75
2021/05/07 12:36:56;;;;;;;22.40;21.00;;;15.70;95.10;;;;;;5079603;28;20558;-74
2021/05/07 12:39:26;;;;;;;20.47;19.17;;;16.10;92.70;;;;;;5081757;28;20880;-74